Terminal Aerodrome Forecast
Issued by NWS Mt. Holly, NJ

Home | Current Version | Previous Version | Text Only | Print | Product List | Glossary On
Versions: 1 2 3 4 5 6 7 8 9 10 11 12 13 14
296
FTUS41 KPHI 221756
TAFABE
TAF
KABE 221756Z 2218/2318 VRB03KT P6SM BKN150
     FM230700 00000KT 5SM BR FEW003 SCT090
     FM230900 00000KT 2SM BR SCT003 BKN009
      TEMPO 2311/2314 1/2SM FG VV003
     FM231400 00000KT 3SM BR SCT003 BKN010
     FM231700 VRB03KT P6SM BKN025=

USA.gov is the U.S. government's official web portal to all federal, state and local government web resources and services.